Time;durP1;ratioP1;P1;durP2;ratioP2;P2;SDS_P1;SDS_P2;PMS_P1;PMS_P2;Temp;Humidity;BMP_temperature;BMP_pressure;BME280_temperature;BME280_humidity;BME280_pressure;Samples;Min_cycle;Max_cycle;Signal;HPM_P1;HPM_P2
2022/01/17 00:00:39;;;;;;;9.80;6.67;;;3.10;99.90;;;3.28;68.93;98983.47;4948647;28;20103;-39
2022/01/17 00:03:07;;;;;;;10.50;6.60;;;3.10;99.90;;;3.27;68.58;98982.59;4948643;29;20074;-39
2022/01/17 00:05:35;;;;;;;11.03;7.00;;;3.00;99.90;;;3.28;68.90;98984.31;4949500;29;20059;-39
2022/01/17 00:08:04;;;;;;;12.80;7.10;;;3.10;99.90;;;3.23;68.62;99006.56;4949234;29;20073;-39
2022/01/17 00:10:32;;;;;;;14.77;9.00;;;3.00;99.90;;;3.18;68.84;99005.94;4948769;29;20353;-39
2022/01/17 00:13:00;;;;;;;14.77;8.70;;;3.00;99.90;;;2.94;69.72;99015.03;4947498;29;20085;-39
2022/01/17 00:15:41;;;;;;;16.23;9.83;;;2.80;99.90;;;2.96;69.55;99005.28;4948791;29;20055;-39
2022/01/17 00:20:46;;;;;;;16.17;10.70;;;2.80;99.90;;;2.98;69.51;99007.84;4947607;29;20063;-39
2022/01/17 00:23:15;;;;;;;17.93;10.60;;;2.80;99.90;;;2.90;69.76;99002.97;4948782;29;20055;-39
2022/01/17 00:25:44;;;;;;;15.83;10.50;;;2.70;99.90;;;2.86;69.85;99011.97;4948475;29;20057;-39
2022/01/17 00:28:12;;;;;;;20.07;10.83;;;2.70;99.90;;;2.71;70.33;99023.25;4949391;29;20231;-39
2022/01/17 00:30:41;;;;;;;18.47;11.33;;;2.60;99.90;;;2.72;70.30;99017.94;4950419;29;20055;-39
2022/01/17 00:33:09;;;;;;;21.57;11.90;;;2.50;99.90;;;2.70;70.37;99008.44;4948679;29;20055;-39
2022/01/17 00:35:38;;;;;;;22.43;11.63;;;2.50;99.90;;;2.61;70.41;99019.41;4948896;29;20062;-40
2022/01/17 00:38:12;;;;;;;22.60;13.20;;;2.50;99.90;;;2.49;70.82;99026.97;4948557;29;20059;-39
2022/01/17 00:40:42;;;;;;;26.97;13.17;;;2.30;99.90;;;2.46;70.77;99027.16;4948447;29;20116;-39
2022/01/17 00:43:11;;;;;;;24.37;13.97;;;2.40;99.90;;;2.52;70.54;99037.34;4948732;29;20061;-39
2022/01/17 00:45:41;;;;;;;20.43;13.00;;;2.40;99.90;;;2.49;70.36;99041.91;4948516;29;20066;-39
2022/01/17 00:48:10;;;;;;;26.37;13.60;;;2.40;99.90;;;2.53;70.52;99020.63;4948669;29;20373;-40
2022/01/17 00:50:40;;;;;;;24.90;14.07;;;2.40;99.90;;;2.47;70.16;99026.22;4948337;29;20047;-39
2022/01/17 00:53:09;;;;;;;24.27;14.93;;;2.40;99.90;;;2.46;70.76;99042.94;4932913;29;20443;-39
2022/01/17 00:55:38;;;;;;;24.60;14.67;;;2.30;99.90;;;2.47;70.40;99026.22;4947563;29;20349;-39
2022/01/17 00:58:07;;;;;;;23.93;15.23;;;2.30;99.90;;;2.41;70.52;99036.19;4949359;29;20051;-39
2022/01/17 01:00:37;;;;;;;28.03;15.50;;;2.30;99.90;;;2.30;70.51;99039.34;4947718;29;20065;-39
2022/01/17 01:03:05;;;;;;;24.47;14.30;;;2.20;99.90;;;2.23;70.47;99051.94;4947394;29;20061;-39
2022/01/17 01:05:34;;;;;;;25.33;14.20;;;2.20;99.90;;;2.20;70.45;99043.34;4947673;29;20055;-39
2022/01/17 01:08:03;;;;;;;25.63;14.67;;;2.10;99.90;;;2.19;70.80;99053.00;4947242;29;20055;-39
2022/01/17 01:10:32;;;;;;;25.73;14.43;;;2.10;99.90;;;2.20;70.59;99059.13;4948306;29;20069;-40
2022/01/17 01:13:01;;;;;;;31.43;14.87;;;2.10;99.90;;;2.25;70.62;99063.22;4947513;28;20329;-39
2022/01/17 01:18:19;;;;;;;27.83;15.27;;;2.10;99.90;;;2.14;70.75;99055.00;4948319;29;20047;-39
2022/01/17 01:28:57;;;;;;;28.40;16.00;;;1.90;99.90;;;2.08;70.56;99063.19;4948143;29;20061;-40
2022/01/17 01:31:39;;;;;;;28.40;16.63;;;1.90;99.90;;;1.99;70.90;99058.34;4947786;29;20059;-39
2022/01/17 01:34:09;;;;;;;30.50;17.67;;;1.80;99.90;;;2.09;71.27;99057.00;4948643;29;20365;-39
2022/01/17 01:36:38;;;;;;;30.13;16.83;;;1.90;99.90;;;2.21;71.13;99053.78;4948325;29;20245;-39
2022/01/17 01:39:08;;;;;;;29.30;16.77;;;2.10;99.90;;;2.22;71.02;99063.38;4947206;29;20261;-39
2022/01/17 01:41:43;;;;;;;27.97;15.07;;;2.00;99.90;;;2.30;70.81;99060.38;4948276;29;20061;-39
2022/01/17 01:44:17;;;;;;;28.00;15.83;;;2.10;99.90;;;2.35;70.97;99048.69;4946909;29;20051;-39
2022/01/17 01:46:47;;;;;;;26.58;15.48;;;2.20;99.90;;;2.35;70.34;99050.47;4947269;29;20059;-40
2022/01/17 01:49:17;;;;;;;27.73;14.90;;;2.20;99.90;;;2.41;70.35;99050.19;4947056;29;20057;-39
2022/01/17 01:51:46;;;;;;;28.70;16.60;;;2.30;99.90;;;2.44;70.26;99041.28;4948701;29;20055;-39
2022/01/17 01:54:15;;;;;;;26.43;17.07;;;2.30;99.90;;;2.47;70.31;99043.78;4948096;29;20047;-39
2022/01/17 01:56:48;;;;;;;24.80;14.30;;;2.30;99.90;;;2.44;70.24;99036.88;4947603;29;20039;-39
2022/01/17 01:59:20;;;;;;;28.93;15.97;;;2.30;99.90;;;2.56;70.47;99032.81;4929707;29;20055;-39
2022/01/17 02:01:49;;;;;;;25.47;15.07;;;2.40;99.90;;;2.65;70.04;99028.84;4947836;29;20063;-39
2022/01/17 02:04:18;;;;;;;26.87;14.40;;;2.50;99.90;;;2.73;70.16;99024.91;4948023;29;20345;-39
2022/01/17 02:06:47;;;;;;;22.47;14.17;;;2.50;99.90;;;2.79;70.05;99030.75;4948756;29;20089;-39
2022/01/17 02:09:15;;;;;;;23.93;15.00;;;2.60;99.90;;;2.77;69.75;99017.69;4947890;29;20078;-39
2022/01/17 02:11:43;;;;;;;26.90;15.43;;;2.60;99.90;;;2.72;70.04;99025.81;4947813;29;20051;-39
2022/01/17 02:14:11;;;;;;;26.73;16.07;;;2.50;99.90;;;2.73;69.94;99031.94;4948660;29;20039;-39
2022/01/17 02:16:41;;;;;;;24.50;14.60;;;2.40;99.90;;;2.71;69.75;99024.09;4948088;29;20047;-40
2022/01/17 02:19:09;;;;;;;25.27;14.33;;;2.40;99.90;;;2.75;69.96;99030.06;4945709;29;20061;-39
2022/01/17 02:21:47;;;;;;;23.90;13.77;;;2.50;99.90;;;2.66;70.22;99025.31;4947992;29;20061;-39
2022/01/17 02:24:20;;;;;;;25.37;16.33;;;2.40;99.90;;;2.68;70.02;99018.19;4946841;28;20056;-39
2022/01/17 02:26:52;;;;;;;23.90;13.87;;;2.40;99.90;;;2.65;70.09;99016.53;4951720;29;20235;-39
2022/01/17 02:29:20;;;;;;;29.63;15.33;;;2.40;99.90;;;2.66;70.25;99013.00;4949920;29;20120;-40
2022/01/17 02:31:48;;;;;;;23.97;15.40;;;2.40;99.90;;;2.69;70.03;99020.72;4951294;29;20692;-39
2022/01/17 02:34:17;;;;;;;26.17;15.90;;;2.40;99.90;;;2.69;70.03;99025.13;4950408;29;20055;-40
2022/01/17 02:36:45;;;;;;;26.30;15.87;;;2.40;99.90;;;2.55;70.47;99028.47;4951405;29;20051;-39
2022/01/17 02:39:15;;;;;;;29.27;15.80;;;2.30;99.90;;;2.56;70.17;99030.16;4933649;29;20258;-39
2022/01/17 02:41:46;;;;;;;28.50;16.87;;;2.20;99.90;;;2.45;70.57;99033.31;4950688;29;20085;-39
2022/01/17 02:44:14;;;;;;;29.07;15.50;;;2.10;99.90;;;2.44;70.74;99039.50;4951165;29;20047;-39
2022/01/17 02:46:43;;;;;;;28.17;14.63;;;2.10;99.90;;;2.54;70.33;99045.19;4951209;29;20078;-39
2022/01/17 02:49:11;;;;;;;29.43;16.83;;;2.20;99.90;;;2.58;70.30;99033.56;4949898;29;20567;-40
2022/01/17 02:51:40;;;;;;;32.13;16.80;;;2.30;99.90;;;2.58;70.70;99041.47;4950046;29;20055;-39
2022/01/17 02:54:08;;;;;;;31.40;15.10;;;2.30;99.90;;;2.63;70.29;99039.44;4951113;29;20245;-39
2022/01/17 02:56:36;;;;;;;26.10;15.67;;;2.30;99.90;;;2.63;70.32;99044.69;4950677;29;20065;-39
2022/01/17 02:59:04;;;;;;;30.87;16.67;;;2.40;99.90;;;2.66;70.72;99041.91;4949958;29;20059;-39
2022/01/17 03:01:33;;;;;;;30.93;17.57;;;2.40;99.90;;;2.64;70.43;99046.41;4950388;29;20065;-39
2022/01/17 03:04:01;;;;;;;29.47;17.03;;;2.30;99.90;;;2.56;70.20;99048.56;4951558;29;20054;-39
2022/01/17 03:06:30;;;;;;;33.07;16.83;;;2.20;99.90;;;2.62;70.22;99053.53;4950722;29;20262;-39
2022/01/17 03:08:58;;;;;;;33.17;17.27;;;2.30;99.90;;;2.56;70.09;99052.06;4949453;29;20055;-39
2022/01/17 03:11:28;;;;;;;30.97;16.73;;;2.20;99.90;;;2.57;70.40;99055.53;4951261;29;20058;-39
2022/01/17 03:13:57;;;;;;;27.17;14.07;;;2.30;99.90;;;2.42;70.07;99045.75;4950641;29;20484;-39
2022/01/17 03:16:30;;;;;;;26.83;15.07;;;2.10;99.90;;;2.42;70.63;99046.59;4950772;29;20051;-39
2022/01/17 03:18:59;;;;;;;26.80;14.57;;;2.10;99.90;;;2.42;70.54;99051.03;4949440;29;20246;-40
2022/01/17 03:21:28;;;;;;;28.27;15.97;;;2.10;99.90;;;2.36;70.40;99047.78;4950132;29;20062;-39
2022/01/17 03:23:57;;;;;;;26.67;14.97;;;2.10;99.90;;;2.40;70.57;99039.72;4949180;29;20051;-39
2022/01/17 03:26:29;;;;;;;23.00;14.10;;;2.10;99.90;;;2.39;70.78;99036.25;4932739;29;20062;-39
2022/01/17 03:29:00;;;;;;;27.73;15.13;;;2.20;99.90;;;2.43;70.81;99026.44;4949910;29;20051;-39
2022/01/17 03:31:28;;;;;;;27.23;14.47;;;2.20;99.90;;;2.28;70.89;99020.16;4950017;29;20534;-39
2022/01/17 03:33:56;;;;;;;28.80;15.40;;;2.10;99.90;;;2.27;71.29;99018.44;4949563;29;20062;-39
2022/01/17 03:36:25;;;;;;;25.47;14.53;;;2.00;99.90;;;2.33;71.09;99024.28;4947034;28;20064;-39
2022/01/17 03:38:54;;;;;;;26.00;15.70;;;2.10;99.90;;;2.38;70.91;99029.28;4950703;29;20055;-40
2022/01/17 03:41:23;;;;;;;24.40;14.37;;;2.10;99.90;;;2.29;70.84;99051.63;4949320;29;20055;-39
2022/01/17 03:43:51;;;;;;;28.13;16.20;;;2.10;99.90;;;2.43;70.68;99063.25;4950160;29;20047;-39
2022/01/17 03:46:19;;;;;;;25.13;15.33;;;2.20;99.90;;;2.40;70.89;99058.13;4950984;29;20066;-39
2022/01/17 03:48:48;;;;;;;23.93;13.73;;;2.20;99.90;;;2.38;71.22;99065.25;4949055;29;20361;-39
2022/01/17 03:51:16;;;;;;;28.33;16.30;;;2.20;99.90;;;2.35;71.15;99061.84;4949657;29;20249;-39
2022/01/17 03:53:44;;;;;;;25.10;13.50;;;2.10;99.90;;;2.44;71.40;99057.06;4950542;29;20498;-39
2022/01/17 03:56:12;;;;;;;24.80;14.77;;;2.20;99.90;;;2.43;70.98;99063.25;4949760;29;20051;-39
2022/01/17 03:58:40;;;;;;;24.60;13.83;;;2.20;99.90;;;2.33;70.94;99058.44;4949299;29;20053;-40
2022/01/17 04:01:09;;;;;;;25.60;14.67;;;2.10;99.90;;;2.42;71.02;99062.38;4949453;29;20345;-39
2022/01/17 04:03:38;;;;;;;26.50;15.47;;;2.20;99.90;;;2.29;71.36;99070.03;4950377;29;20051;-39
2022/01/17 04:06:06;;;;;;;29.63;17.53;;;2.10;99.90;;;2.40;71.17;99072.13;4949424;29;20062;-39
2022/01/17 04:08:35;;;;;;;24.40;14.67;;;2.20;99.90;;;2.35;71.24;99072.34;4949772;29;20323;-39
2022/01/17 04:11:03;;;;;;;25.67;14.27;;;2.10;99.90;;;2.28;71.38;99068.31;4950535;29;20059;-39
2022/01/17 04:13:33;;;;;;;25.13;14.50;;;2.10;99.90;;;2.26;71.29;99061.44;4948628;29;20055;-39
2022/01/17 04:16:01;;;;;;;23.03;14.10;;;2.10;99.90;;;2.34;71.64;99054.88;4949667;29;20373;-39
2022/01/17 04:18:29;;;;;;;29.90;15.47;;;2.10;99.90;;;2.24;71.61;99051.00;4948112;29;20027;-40
2022/01/17 04:21:01;;;;;;;24.97;14.23;;;2.10;99.90;;;2.25;71.78;99054.47;4948062;29;20344;-39
2022/01/17 04:23:30;;;;;;;25.97;12.93;;;2.00;99.90;;;2.14;71.67;99044.50;4949027;29;20349;-39
2022/01/17 04:25:58;;;;;;;26.23;14.33;;;2.00;99.90;;;2.15;71.81;99036.53;4948380;29;20238;-39
2022/01/17 04:28:26;;;;;;;20.87;13.70;;;2.00;99.90;;;2.24;71.71;99037.00;4949454;29;20051;-40
2022/01/17 04:30:54;;;;;;;23.27;13.60;;;2.00;99.90;;;2.19;71.79;99028.50;4949034;29;20505;-39
2022/01/17 04:33:22;;;;;;;19.00;11.73;;;2.10;99.90;;;2.14;72.29;99029.56;4947767;29;20077;-39
2022/01/17 04:35:50;;;;;;;24.27;12.47;;;2.00;99.90;;;2.15;72.33;99033.03;4948487;29;20061;-39
2022/01/17 04:38:20;;;;;;;25.17;13.77;;;2.10;99.90;;;2.17;72.39;99047.81;4948604;29;20055;-39
2022/01/17 04:41:01;;;;;;;20.30;12.03;;;2.10;99.90;;;2.14;72.31;99062.88;4948648;29;20047;-39
2022/01/17 04:46:10;;;;;;;24.33;12.60;;;2.00;99.90;;;2.12;72.23;99064.72;4947183;29;20078;-39
2022/01/17 04:48:38;;;;;;;;;;;2.00;99.90;;;2.06;72.84;99051.91;4949240;28;20395;-39
2022/01/17 04:51:08;;;;;;;21.53;11.77;;;2.00;99.90;;;2.08;72.49;99055.31;4947410;29;19948;-41
2022/01/17 04:53:36;;;;;;;20.70;11.03;;;2.00;99.90;;;2.04;73.01;99049.34;4948127;29;20065;-39
2022/01/17 04:56:04;;;;;;;17.83;10.87;;;2.00;99.90;;;2.11;72.75;99061.25;4948145;29;20061;-39
2022/01/17 04:58:32;;;;;;;19.57;11.03;;;2.10;99.90;;;2.23;72.28;99058.94;4948189;29;20047;-39
2022/01/17 05:01:00;;;;;;;23.43;11.73;;;2.20;99.90;;;2.26;72.50;99050.94;4947101;29;20065;-39
2022/01/17 05:03:29;;;;;;;22.70;12.00;;;2.20;99.90;;;2.21;72.85;99056.41;4948441;28;20058;-39
2022/01/17 05:05:57;;;;;;;30.73;15.73;;;2.20;99.90;;;2.24;72.83;99063.28;4947872;29;20059;-39
2022/01/17 05:08:25;;;;;;;20.80;11.40;;;2.20;99.90;;;2.15;72.85;99065.44;4948650;29;20067;-39
2022/01/17 05:10:55;;;;;;;17.50;10.70;;;2.20;99.90;;;2.23;72.79;99066.81;4949307;29;20069;-39
2022/01/17 05:13:31;;;;;;;18.30;10.33;;;2.20;99.90;;;2.27;72.77;99066.63;4947333;29;20063;-39
2022/01/17 05:16:10;;;;;;;16.23;9.37;;;2.20;99.90;;;2.23;72.55;99061.56;4948098;29;20043;-39
2022/01/17 05:21:07;;;;;;;15.63;9.43;;;2.10;99.90;;;2.27;73.08;99064.00;4947774;29;20058;-39
2022/01/17 05:23:35;;;;;;;17.80;10.03;;;2.20;99.90;;;2.32;72.73;99059.34;4947619;29;20376;-39
2022/01/17 05:26:03;;;;;;;18.03;9.70;;;2.30;99.90;;;2.39;72.89;99070.44;4948945;29;20061;-39
2022/01/17 05:28:31;;;;;;;18.40;10.00;;;2.30;99.90;;;2.43;72.40;99069.34;4947644;28;20067;-39
2022/01/17 05:31:00;;;;;;;15.40;8.87;;;2.40;99.90;;;2.39;72.70;99067.81;4948388;29;20054;-39
2022/01/17 05:33:30;;;;;;;17.30;9.60;;;2.40;99.90;;;2.47;72.87;99051.66;4948323;29;20047;-39
2022/01/17 05:35:58;;;;;;;12.63;8.83;;;2.40;99.90;;;2.45;72.73;99049.09;4948244;28;20059;-39
2022/01/17 05:38:26;;;;;;;11.67;7.57;;;2.40;99.90;;;2.56;72.65;99049.41;4947181;29;20334;-39
2022/01/17 05:40:54;;;;;;;13.10;7.33;;;2.50;99.90;;;2.51;73.07;99048.78;4948988;29;20047;-39
2022/01/17 05:43:23;;;;;;;11.23;6.07;;;2.50;99.90;;;2.50;73.28;99043.59;4947750;29;20063;-39
2022/01/17 05:45:51;;;;;;;10.77;6.80;;;2.50;99.90;;;2.54;73.15;99048.66;4948133;29;20051;-39
2022/01/17 05:48:19;;;;;;;10.70;5.70;;;2.50;99.90;;;2.56;73.12;99043.31;4949809;29;20057;-39
2022/01/17 05:50:47;;;;;;;11.10;7.40;;;2.50;99.90;;;2.54;73.09;99050.44;4947575;29;20260;-39
2022/01/17 05:53:15;;;;;;;10.07;6.90;;;2.50;99.90;;;2.55;73.53;99054.75;4948751;29;20073;-39
2022/01/17 05:55:44;;;;;;;8.43;5.10;;;2.50;99.90;;;2.52;73.75;99042.63;4947687;29;20047;-40
2022/01/17 05:58:13;;;;;;;8.37;5.40;;;2.50;99.90;;;2.55;73.72;99037.19;4948328;29;20234;-39
2022/01/17 06:00:41;;;;;;;8.90;5.70;;;2.50;99.90;;;2.58;73.69;99037.97;4949428;28;20055;-39
2022/01/17 06:03:09;;;;;;;7.63;5.63;;;2.60;99.90;;;2.60;73.76;99044.88;4951227;29;20081;-39
2022/01/17 06:05:37;;;;;;;7.87;5.30;;;2.70;99.90;;;2.69;73.73;99051.44;4951454;29;20057;-39
2022/01/17 06:08:05;;;;;;;10.33;6.60;;;2.70;99.90;;;2.77;73.55;99046.63;4953111;29;20051;-39
2022/01/17 06:10:34;;;;;;;10.37;6.40;;;2.80;99.90;;;2.76;73.89;99044.94;4951180;29;20137;-39
2022/01/17 06:13:02;;;;;;;8.33;5.27;;;2.80;99.90;;;2.78;73.40;99056.22;4951369;29;20253;-39
2022/01/17 06:15:30;;;;;;;9.80;5.17;;;2.80;99.90;;;2.75;73.86;99053.75;4949880;29;20069;-39
2022/01/17 06:17:58;;;;;;;7.03;5.10;;;2.90;99.90;;;2.61;74.25;99062.31;4951926;29;20070;-39
2022/01/17 06:20:30;;;;;;;8.50;5.40;;;2.80;99.90;;;2.64;74.14;99066.59;4951365;29;20069;-39
2022/01/17 06:22:58;;;;;;;8.60;5.73;;;2.80;99.90;;;2.71;73.98;99074.06;4933265;29;20063;-39
2022/01/17 06:25:26;;;;;;;10.53;4.83;;;2.80;99.90;;;2.70;73.83;99088.16;4951606;29;20061;-39
2022/01/17 06:27:54;;;;;;;7.87;4.73;;;2.80;99.90;;;2.70;73.92;99077.66;4951090;29;20435;-39
2022/01/17 06:30:22;;;;;;;7.63;5.07;;;2.80;99.90;;;2.69;73.80;99070.69;4951415;29;20081;-39
2022/01/17 06:32:50;;;;;;;10.50;6.13;;;2.80;99.90;;;2.64;73.81;99074.50;4950779;29;20051;-39
2022/01/17 06:35:19;;;;;;;7.30;4.97;;;2.70;99.90;;;2.63;73.76;99092.03;4950654;29;20059;-39
2022/01/17 06:37:48;;;;;;;10.23;6.37;;;2.70;99.90;;;2.75;74.08;99093.19;4950395;29;20265;-39
2022/01/17 06:40:18;;;;;;;10.77;6.43;;;2.80;99.90;;;2.83;73.59;99093.69;4949993;29;20073;-39
2022/01/17 06:42:50;;;;;;;10.87;6.57;;;2.80;99.90;;;2.83;73.65;99105.97;4950965;29;20047;-39
2022/01/17 06:45:18;;;;;;;9.60;6.80;;;2.80;99.90;;;2.83;73.65;99105.97;4951642;29;20059;-38
2022/01/17 06:47:47;;;;;;;9.27;6.07;;;2.80;99.90;;;2.86;73.88;99121.59;4950309;29;20055;-38
2022/01/17 06:50:15;;;;;;;10.00;7.07;;;2.80;99.90;;;2.87;73.62;99124.16;4950983;29;20059;-37
2022/01/17 06:52:44;;;;;;;9.97;5.67;;;2.80;99.90;;;2.81;73.68;99113.06;4949822;29;20059;-37
2022/01/17 06:55:13;;;;;;;11.00;6.73;;;2.80;99.90;;;2.82;73.39;99114.78;4950904;29;20061;-39
2022/01/17 06:57:41;;;;;;;11.67;6.53;;;2.80;99.90;;;2.90;73.70;99108.19;4951163;29;20357;-39
2022/01/17 07:00:11;;;;;;;12.03;6.63;;;2.90;99.90;;;2.89;73.71;99109.16;4950054;29;20061;-37
2022/01/17 07:02:43;;;;;;;10.57;6.70;;;2.80;99.90;;;2.92;73.50;99118.66;4950592;29;20234;-37
2022/01/17 07:05:11;;;;;;;13.63;7.50;;;2.90;99.90;;;2.88;73.37;99119.75;4951647;29;20053;-39
2022/01/17 07:07:39;;;;;;;12.63;7.13;;;2.80;99.90;;;2.96;73.28;99122.84;4950172;29;20047;-39
2022/01/17 07:10:08;;;;;;;13.83;7.27;;;2.90;99.90;;;2.87;73.14;99141.69;4949984;28;20053;-37
2022/01/17 07:12:36;;;;;;;11.40;7.70;;;2.80;99.90;;;2.75;73.76;99151.06;4933069;29;20078;-38
2022/01/17 07:15:07;;;;;;;12.97;6.97;;;2.70;99.90;;;2.90;73.24;99131.03;4949951;29;20358;-38
2022/01/17 07:17:36;;;;;;;11.47;7.10;;;2.80;99.90;;;3.03;73.02;99126.03;4951426;29;20061;-38
2022/01/17 07:20:05;;;;;;;11.30;6.90;;;3.00;99.90;;;3.04;72.97;99144.34;4949723;29;20257;-38
2022/01/17 07:22:33;;;;;;;10.07;6.90;;;3.00;99.90;;;3.00;73.06;99152.47;4951135;29;20059;-38
2022/01/17 07:25:03;;;;;;;11.53;7.20;;;2.90;99.90;;;2.86;72.59;99184.72;4949332;29;20059;-37
2022/01/17 07:27:36;;;;;;;9.40;5.90;;;2.80;99.90;;;2.95;72.61;99181.66;4951624;29;20705;-37
2022/01/17 07:30:06;;;;;;;10.23;6.47;;;2.90;99.90;;;3.03;72.70;99161.06;4948939;29;20215;-38
2022/01/17 07:32:35;;;;;;;10.77;6.47;;;2.90;99.90;;;3.11;72.69;99153.63;4948964;29;20083;-38
2022/01/17 07:35:06;;;;;;;10.13;6.10;;;3.00;99.90;;;3.19;72.55;99149.78;4948170;29;20043;-38
2022/01/17 07:37:35;;;;;;;8.70;5.80;;;3.10;99.90;;;3.13;72.27;99143.03;4950187;29;20059;-38
2022/01/17 07:40:06;;;;;;;9.33;5.00;;;3.10;99.90;;;3.25;72.09;99147.66;4949141;29;20366;-37
2022/01/17 07:42:35;;;;;;;11.70;6.37;;;3.20;99.90;;;3.26;72.38;99143.28;4950376;29;20249;-38
2022/01/17 07:45:14;;;;;;;9.20;5.30;;;3.20;99.90;;;3.23;72.24;99146.06;4949848;29;20063;-38
2022/01/17 07:48:08;;;;;;;8.77;5.33;;;3.20;99.90;;;3.19;72.45;99155.03;4939476;29;20584;-37
2022/01/17 07:50:34;;;;;;;7.90;5.50;;;3.10;99.90;;;3.12;72.02;99175.53;4947977;29;20455;-38
2022/01/17 07:53:02;;;;;;;8.50;5.77;;;3.10;99.90;;;3.17;72.13;99180.59;4950701;29;20198;-38
2022/01/17 07:55:31;;;;;;;10.93;5.60;;;3.00;99.90;;;3.15;72.01;99173.59;4948243;29;20051;-38
2022/01/17 07:57:59;;;;;;;8.40;5.70;;;3.10;99.90;;;3.18;72.38;99174.38;4949463;29;20058;-38
2022/01/17 08:00:27;;;;;;;7.30;5.63;;;3.10;99.90;;;3.22;71.98;99182.06;4946506;29;20055;-37
2022/01/17 08:02:58;;;;;;;12.47;7.77;;;3.10;99.90;;;3.24;71.95;99198.63;4948086;28;20081;-37
2022/01/17 08:05:26;;;;;;;11.43;7.03;;;3.10;99.90;;;3.32;72.15;99193.81;4949520;29;20061;-37
2022/01/17 08:07:54;;;;;;;9.97;7.10;;;3.20;99.90;;;3.40;72.10;99184.69;4948710;29;20063;-37
2022/01/17 08:10:22;;;;;;;9.37;6.27;;;3.30;99.90;;;3.48;71.99;99178.09;4948420;29;20119;-37
2022/01/17 08:12:51;;;;;;;10.53;6.27;;;3.40;99.90;;;3.40;71.47;99176.78;4949254;29;20054;-37
2022/01/17 08:15:19;;;;;;;9.30;5.30;;;3.30;99.90;;;3.46;71.49;99179.94;4948192;29;20053;-37
2022/01/17 08:17:47;;;;;;;8.03;5.63;;;3.30;99.90;;;3.49;71.94;99173.66;4948326;29;20057;-38
2022/01/17 08:20:16;;;;;;;9.00;6.10;;;3.30;99.90;;;3.55;71.61;99179.47;4948509;29;20053;-38
2022/01/17 08:22:45;;;;;;;8.00;5.27;;;3.40;99.90;;;3.43;71.67;99168.72;4948676;28;20399;-38
2022/01/17 08:25:16;;;;;;;6.97;4.53;;;3.30;99.90;;;3.39;71.48;99167.19;4948838;29;20043;-38
2022/01/17 08:27:44;;;;;;;6.80;4.50;;;3.30;99.90;;;3.43;71.07;99166.97;4948328;29;20062;-38
2022/01/17 08:30:13;;;;;;;7.33;4.43;;;3.30;99.90;;;3.53;71.45;99164.69;4947158;29;20059;-38
2022/01/17 08:33:01;;;;;;;7.27;3.67;;;3.40;99.90;;;3.39;71.09;99173.28;4943775;29;20575;-38
2022/01/17 08:35:30;;;;;;;6.83;4.33;;;3.30;99.90;;;3.46;71.74;99177.31;4948302;29;20215;-38
2022/01/17 08:37:58;;;;;;;7.60;4.47;;;3.40;99.90;;;3.50;71.11;99175.38;4947906;29;20061;-38
2022/01/17 08:40:27;;;;;;;6.50;4.60;;;3.40;99.90;;;3.55;71.87;99168.09;4948383;29;20349;-38
2022/01/17 08:42:56;;;;;;;12.70;7.33;;;3.50;99.90;;;3.50;71.51;99159.56;4948118;29;20368;-38
2022/01/17 08:45:24;;;;;;;7.37;4.97;;;3.50;99.90;;;3.50;71.25;99146.41;4947864;29;20051;-38
2022/01/17 08:48:12;;;;;;;9.97;5.73;;;3.50;99.90;;;3.63;71.15;99147.47;4948298;29;20061;-38
2022/01/17 08:50:41;;;;;;;6.93;4.33;;;3.60;99.90;;;3.63;71.08;99152.75;4946722;29;20055;-38
2022/01/17 08:53:13;;;;;;;7.33;4.50;;;3.70;99.90;;;3.57;70.68;99145.16;4947161;29;20059;-37
2022/01/17 08:55:43;;;;;;;8.60;5.43;;;3.60;99.90;;;3.68;71.37;99148.09;4923531;29;20051;-38
2022/01/17 08:58:13;;;;;;;8.70;4.80;;;3.70;99.90;;;3.72;71.15;99159.28;4949134;29;20047;-38
2022/01/17 09:00:42;;;;;;;6.57;4.57;;;3.70;99.90;;;3.77;70.77;99162.53;4944940;29;20054;-38
2022/01/17 09:03:25;;;;;;;6.93;4.07;;;3.80;99.90;;;3.69;70.88;99172.63;4945509;29;20050;-37
2022/01/17 09:05:54;;;;;;;5.97;3.80;;;3.80;99.90;;;3.78;71.20;99176.56;4948156;29;20043;-37
2022/01/17 09:08:23;;;;;;;6.83;3.83;;;3.80;99.90;;;3.91;71.29;99175.81;4948583;29;20505;-37
2022/01/17 09:10:54;;;;;;;5.17;3.63;;;4.00;99.90;;;4.00;70.82;99194.72;4948891;29;20249;-37
2022/01/17 09:13:23;;;;;;;7.07;4.60;;;4.00;99.90;;;3.90;71.10;99192.59;4947575;29;20349;-38
2022/01/17 09:15:53;;;;;;;8.20;4.30;;;4.00;99.90;;;3.90;70.38;99197.84;4946525;29;20046;-38
2022/01/17 09:18:24;;;;;;;6.97;4.37;;;4.00;99.90;;;4.00;70.98;99200.84;4947822;29;20059;-38
2022/01/17 09:20:53;;;;;;;5.80;3.87;;;4.00;99.90;;;4.09;71.64;99176.63;4948264;29;20586;-38
2022/01/17 09:23:21;;;;;;;4.70;3.57;;;4.10;99.90;;;4.04;70.99;99177.81;4948326;29;20318;-38
2022/01/17 09:25:51;;;;;;;7.17;4.37;;;4.10;99.90;;;3.97;71.31;99172.00;4946756;29;20245;-38
2022/01/17 09:28:19;;;;;;;4.80;3.50;;;4.10;99.90;;;4.08;70.70;99174.09;4948729;29;20058;-37
2022/01/17 09:30:49;;;;;;;6.33;4.13;;;4.10;99.90;;;4.08;70.54;99196.00;4947647;29;20061;-38
2022/01/17 09:33:17;;;;;;;7.37;4.43;;;4.10;99.90;;;4.12;70.86;99209.88;4945633;28;20276;-38
2022/01/17 09:35:46;;;;;;;6.47;3.73;;;4.10;99.90;;;4.14;70.96;99219.41;4951093;29;20059;-38
2022/01/17 09:38:15;;;;;;;5.50;3.40;;;4.10;99.90;;;4.08;70.91;99226.78;4952421;29;20069;-38
2022/01/17 09:40:43;;;;;;;5.73;4.17;;;4.10;99.90;;;4.14;70.61;99232.56;4951830;29;20061;-38
2022/01/17 09:43:31;;;;;;;8.23;5.10;;;4.20;99.90;;;4.22;70.81;99234.81;4952284;29;20043;-38
2022/01/17 09:45:59;;;;;;;5.87;4.23;;;4.20;99.90;;;4.22;70.97;99250.63;4950801;29;20059;-38
2022/01/17 09:48:38;;;;;;;7.47;4.90;;;4.30;99.90;;;4.25;70.35;99245.19;4952751;29;20234;-38
2022/01/17 09:51:37;;;;;;;7.07;4.57;;;4.30;99.90;;;4.19;70.76;99245.53;4951380;29;20063;-39
2022/01/17 09:54:07;;;;;;;6.43;4.37;;;4.20;99.90;;;4.19;70.69;99255.19;4951587;29;20069;-38
2022/01/17 09:56:38;;;;;;;6.13;4.03;;;4.20;99.90;;;4.15;70.87;99244.00;4952980;29;20059;-38
2022/01/17 09:59:07;;;;;;;6.60;4.53;;;4.20;99.90;;;3.94;71.24;99246.81;4950735;29;20055;-38
2022/01/17 10:01:37;;;;;;;6.47;3.97;;;4.10;99.90;;;3.98;71.22;99270.38;4950012;29;20069;-38
2022/01/17 10:04:07;;;;;;;7.33;4.60;;;4.10;99.90;;;4.00;71.46;99273.78;4950362;29;20055;-38
2022/01/17 10:06:36;;;;;;;5.30;4.40;;;4.10;99.90;;;4.11;70.76;99264.38;4952159;29;20069;-38
2022/01/17 10:09:21;;;;;;;6.50;4.23;;;4.20;99.90;;;4.05;71.15;99263.84;4951447;29;20260;-39
2022/01/17 10:12:16;;;;;;;8.07;4.63;;;4.20;99.90;;;4.09;70.98;99253.06;4950904;29;20047;-39
2022/01/17 10:14:59;;;;;;;6.90;4.23;;;4.20;99.90;;;4.05;71.09;99250.66;4952173;29;20057;-39
2022/01/17 10:17:50;;;;;;;7.57;4.10;;;4.20;99.90;;;4.08;70.61;99264.53;4951665;29;20055;-39
2022/01/17 10:20:19;;;;;;;8.40;3.80;;;4.20;99.90;;;4.10;70.72;99259.19;4951969;29;20051;-39
2022/01/17 10:23:05;;;;;;;7.70;4.73;;;4.20;99.90;;;4.02;71.39;99264.03;4933716;29;20369;-39
2022/01/17 10:31:32;;;;;;;7.83;4.43;;;4.10;99.90;;;4.04;71.13;99256.88;4951497;29;20254;-39
2022/01/17 10:36:48;;;;;;;8.50;5.07;;;4.10;99.90;;;4.21;70.74;99264.75;4951289;29;20063;-39
2022/01/17 10:39:16;;;;;;;9.45;5.22;;;4.20;99.90;;;4.24;70.83;99261.94;4950543;29;20055;-39
2022/01/17 10:41:45;;;;;;;7.57;4.60;;;4.20;99.90;;;4.24;70.55;99271.63;4950405;29;20383;-39
2022/01/17 10:44:37;;;;;;;7.73;5.10;;;4.20;99.90;;;4.13;70.20;99265.16;4951273;29;20082;-39
2022/01/17 10:47:28;;;;;;;10.40;5.43;;;4.20;99.90;;;4.08;70.83;99282.16;4948478;28;20069;-39
2022/01/17 10:50:03;;;;;;;8.47;4.57;;;4.10;99.90;;;3.87;70.89;99292.00;4949102;29;20059;-39
2022/01/17 10:52:39;;;;;;;7.77;5.03;;;3.90;99.90;;;3.86;71.16;99312.25;4949906;29;20062;-39
2022/01/17 10:55:18;;;;;;;8.00;4.67;;;3.80;99.90;;;3.74;71.29;99305.81;4950160;29;20047;-39
2022/01/17 10:57:50;;;;;;;7.57;5.53;;;3.80;99.90;;;3.83;71.79;99324.72;4949839;29;20055;-39
2022/01/17 11:00:28;;;;;;;8.43;5.20;;;3.80;99.90;;;3.65;72.12;99313.34;4950830;29;20057;-39
2022/01/17 11:03:00;;;;;;;7.50;5.27;;;3.70;99.90;;;3.72;71.93;99314.72;4949375;29;20070;-39
2022/01/17 11:05:31;;;;;;;8.07;5.77;;;3.70;99.90;;;3.60;71.76;99303.00;4933563;29;20059;-39